罗盘
风向 的 风向 020°
风: 6 kt, 2 beaufort

添加一条跑道以查看侧风和逆风信息。

添置 跑道
0 1.000 2.000 3.000 4.000 5.000
没有云
METAR CYHU 171200Z AUTO 02006KT 9SM CLR 17/13 A3011 RMK SLP199 DENSITY ALT 100FT

METAR Bouthillier Airport - CRG3

Bouthillier Airport是Carignan,加拿大中的小机场。 视场标高为45 ft。 该领域的国际民航组织标志是CRG3.

这份报告是针对2022年8月17日 8:00 上午, 当地时间在Montréal / Saint-Hubert Airport进行的。

机场观察

风向为020°,速度为6 kt。

可见度为9 mi。

有没有云。 没有观察到天花板。

温度和风寒是63 °F。 露点为55 °F,相对湿度为77%。 海平面上的气压为30,11 inHg (QNH)。

白天

今天,太阳从5:56 上午升起,在7:57 下午降落。 这适用于Bouthillier Airport,世界夏令时可能有所不同。 当地时间与世界标准时间之间的时差为-4 小时。 夏令时目前正在进行中。

公司介绍

我们没有关于这个机场的公司信息。

体会

到Vliegles.nl去找飞行课程,跳伞和其他飞行体验。 浏览页面,了解Bouthillier Airport附近所有可用的活动。 你也可以使用搜索功能来寻找你所在地附近的特定飞行课程、跳伞或其他飞行体验。

乌云

- CLR 没有云

温度 & 天气

温度 63 °F
露点 55 °F
相对湿度 77%
Kp-index 0  

评论

SLP199海平面压力为30,12 inHg (30,12 inHg)
DENSITY ALT 100FT

白天

日出
5:57 上午
中午
12:57 下午
日落
7:58 下午 (11h 14m)

小工具

你想在你的网站上有一个关于Bouthillier Airport的当前航空天气(METAR)的小部件吗?

</> 显示HTML代码

我们和第三方通过cookies跟踪您在我们网站上的上网行为。如果您继续,我们认为您同意我们的cookie政策。 了解更多